Time;durP1;ratioP1;P1;durP2;ratioP2;P2;SDS_P1;SDS_P2;PMS_P1;PMS_P2;Temp;Humidity;BMP_temperature;BMP_pressure;BME280_temperature;BME280_humidity;BME280_pressure;Samples;Min_cycle;Max_cycle;Signal;HPM_P1;HPM_P2
2022/03/08 00:02:07;;;;;;;30.23;16.65;;;;;;;;;;5010613;28;20034;-65
2022/03/08 00:04:33;;;;;;;28.17;17.20;;;;;;;;;;5011049;28;20092;-65
2022/03/08 00:06:58;;;;;;;30.63;17.45;;;;;;;;;;5010484;28;20402;-64
2022/03/08 00:09:24;;;;;;;29.70;16.45;;;;;;;;;;5010992;28;20049;-65
2022/03/08 00:11:50;;;;;;;30.25;16.23;;;;;;;;;;5010751;28;20029;-65
2022/03/08 00:14:15;;;;;;;28.90;16.42;;;;;;;;;;5010685;28;20105;-65
2022/03/08 00:16:41;;;;;;;28.02;16.02;;;;;;;;;;5010364;28;20585;-64
2022/03/08 00:19:06;;;;;;;27.85;15.73;;;;;;;;;;5010431;28;20049;-64
2022/03/08 00:21:31;;;;;;;27.92;15.32;;;;;;;;;;5010500;28;20109;-64
2022/03/08 00:23:57;;;;;;;27.65;15.43;;;;;;;;;;5010922;28;20607;-64
2022/03/08 00:26:23;;;;;;;32.20;15.43;;;;;;;;;;5010427;28;20040;-64
2022/03/08 00:28:49;;;;;;;26.23;14.82;;;;;;;;;;5010491;28;20030;-65
2022/03/08 00:31:14;;;;;;;27.30;15.00;;;;;;;;;;5010148;28;20044;-65
2022/03/08 00:33:41;;;;;;;25.95;15.30;;;;;;;;;;5010320;28;20092;-65
2022/03/08 00:36:07;;;;;;;28.92;15.15;;;;;;;;;;5010014;28;20034;-64
2022/03/08 00:38:34;;;;;;;27.50;15.40;;;;;;;;;;5010248;28;20461;-65
2022/03/08 00:41:00;;;;;;;26.80;15.13;;;;;;;;;;5010154;28;20022;-64
2022/03/08 00:43:25;;;;;;;28.33;15.30;;;;;;;;;;5010561;28;20034;-65
2022/03/08 00:45:51;;;;;;;26.05;14.15;;;;;;;;;;5010519;28;20057;-65
2022/03/08 00:48:16;;;;;;;26.67;14.18;;;;;;;;;;5010321;28;20037;-64
2022/03/08 00:50:42;;;;;;;27.08;13.45;;;;;;;;;;5010008;28;20061;-64
2022/03/08 00:53:07;;;;;;;25.23;13.50;;;;;;;;;;5010627;28;20026;-64
2022/03/08 00:55:34;;;;;;;27.65;13.23;;;;;;;;;;5010108;28;20543;-65
2022/03/08 00:58:01;;;;;;;23.35;12.80;;;;;;;;;;5010136;28;20484;-64
2022/03/08 01:00:28;;;;;;;26.15;12.93;;;;;;;;;;5010150;28;20040;-65
2022/03/08 01:02:54;;;;;;;21.95;11.90;;;;;;;;;;5010220;28;20129;-65
2022/03/08 01:05:20;;;;;;;23.83;12.98;;;;;;;;;;5014243;28;20041;-64
2022/03/08 01:07:45;;;;;;;20.80;11.43;;;;;;;;;;5013790;28;20026;-65
2022/03/08 01:10:16;;;;;;;24.52;12.10;;;;;;;;;;5013960;28;20030;-65
2022/03/08 01:12:44;;;;;;;20.30;11.48;;;;;;;;;;5013892;28;20069;-64
2022/03/08 01:15:10;;;;;;;26.27;12.32;;;;;;;;;;5013955;28;20030;-64
2022/03/08 01:17:36;;;;;;;24.25;12.18;;;;;;;;;;5013744;28;20025;-65
2022/03/08 01:20:04;;;;;;;21.08;11.38;;;;;;;;;;5014419;28;20037;-65
2022/03/08 01:22:29;;;;;;;22.45;11.98;;;;;;;;;;5014171;28;20041;-65
2022/03/08 01:24:54;;;;;;;23.10;12.48;;;;;;;;;;5013861;28;20404;-65
2022/03/08 01:27:20;;;;;;;22.40;12.30;;;;;;;;;;5013738;28;20394;-65
2022/03/08 01:29:45;;;;;;;21.83;11.98;;;;;;;;;;5013642;28;20029;-65
2022/03/08 01:32:11;;;;;;;19.38;11.68;;;;;;;;;;5013641;28;20121;-64
2022/03/08 01:34:36;;;;;;;23.65;11.90;;;;;;;;;;5013823;28;20045;-64
2022/03/08 01:37:03;;;;;;;24.80;11.65;;;;;;;;;;5013612;28;20068;-66
2022/03/08 01:39:28;;;;;;;23.27;11.65;;;;;;;;;;5013379;28;20025;-65
2022/03/08 01:41:54;;;;;;;22.48;12.05;;;;;;;;;;5013632;28;20037;-65
2022/03/08 01:44:20;;;;;;;20.80;11.98;;;;;;;;;;5013784;28;20034;-64
2022/03/08 01:46:46;;;;;;;21.50;11.35;;;;;;;;;;5013087;28;20456;-65
2022/03/08 01:49:11;;;;;;;20.98;11.50;;;;;;;;;;5013449;28;20022;-65
2022/03/08 01:51:39;;;;;;;21.85;11.23;;;;;;;;;;5013147;28;20037;-65
2022/03/08 01:54:06;;;;;;;20.67;11.05;;;;;;;;;;5013555;28;20065;-64
2022/03/08 01:56:33;;;;;;;23.77;11.65;;;;;;;;;;5013168;28;20026;-64
2022/03/08 01:58:59;;;;;;;24.48;12.48;;;;;;;;;;5013280;28;20080;-65
2022/03/08 02:01:26;;;;;;;20.55;11.23;;;;;;;;;;5013047;28;20021;-65
2022/03/08 02:03:51;;;;;;;18.60;11.02;;;;;;;;;;5013127;28;20041;-64
2022/03/08 02:06:17;;;;;;;21.13;11.10;;;;;;;;;;5013147;28;20026;-65
2022/03/08 02:08:42;;;;;;;23.05;12.00;;;;;;;;;;5013015;28;20029;-64
2022/03/08 02:11:08;;;;;;;24.73;12.25;;;;;;;;;;5013507;28;20038;-64
2022/03/08 02:13:33;;;;;;;22.52;12.00;;;;;;;;;;5013023;28;20534;-64
2022/03/08 02:15:59;;;;;;;21.15;12.10;;;;;;;;;;5011540;28;20464;-64
2022/03/08 02:18:24;;;;;;;21.02;12.32;;;;;;;;;;5012471;28;20529;-65
2022/03/08 02:20:50;;;;;;;23.55;12.57;;;;;;;;;;5012907;28;20040;-64
2022/03/08 02:23:15;;;;;;;23.80;12.93;;;;;;;;;;5012587;28;20079;-64
2022/03/08 02:25:41;;;;;;;27.05;13.60;;;;;;;;;;5013040;28;20261;-64
2022/03/08 02:28:07;;;;;;;24.08;13.70;;;;;;;;;;5012617;28;20030;-64
2022/03/08 02:30:33;;;;;;;25.63;13.85;;;;;;;;;;5027761;28;20398;-65
2022/03/08 02:32:58;;;;;;;25.48;13.40;;;;;;;;;;5012250;28;20501;-66
2022/03/08 02:35:27;;;;;;;26.77;13.73;;;;;;;;;;5012449;28;20483;-65
2022/03/08 02:38:01;;;;;;;24.63;13.75;;;;;;;;;;5012236;28;20197;-65
2022/03/08 02:40:35;;;;;;;23.02;13.18;;;;;;;;;;5012615;28;20037;-66
2022/03/08 02:43:01;;;;;;;22.92;12.77;;;;;;;;;;5012577;28;20026;-65
2022/03/08 02:45:27;;;;;;;23.42;13.07;;;;;;;;;;5012423;28;20026;-66
2022/03/08 02:47:53;;;;;;;25.08;13.40;;;;;;;;;;5012086;28;20026;-66
2022/03/08 02:50:19;;;;;;;25.83;13.15;;;;;;;;;;5011905;28;20034;-65
2022/03/08 02:52:48;;;;;;;22.90;13.23;;;;;;;;;;5012056;28;20037;-65
2022/03/08 02:55:14;;;;;;;23.05;12.70;;;;;;;;;;5012317;28;20030;-64
2022/03/08 02:57:41;;;;;;;22.55;12.90;;;;;;;;;;5012083;28;20025;-65
2022/03/08 03:00:09;;;;;;;22.42;12.55;;;;;;;;;;5012007;28;20486;-65
2022/03/08 03:02:35;;;;;;;22.63;12.82;;;;;;;;;;5012170;28;20041;-64
2022/03/08 03:05:00;;;;;;;22.90;12.18;;;;;;;;;;5012180;28;20029;-66
2022/03/08 03:07:26;;;;;;;22.33;11.73;;;;;;;;;;5011854;28;20025;-65
2022/03/08 03:09:51;;;;;;;23.83;11.43;;;;;;;;;;5011848;28;20034;-65
2022/03/08 03:12:17;;;;;;;20.55;11.25;;;;;;;;;;5011641;28;20458;-66
2022/03/08 03:14:43;;;;;;;21.45;11.88;;;;;;;;;;5012073;28;20028;-66
2022/03/08 03:17:09;;;;;;;19.77;11.20;;;;;;;;;;5011971;28;20037;-64
2022/03/08 03:19:35;;;;;;;18.77;11.10;;;;;;;;;;5012128;28;20049;-64
2022/03/08 03:22:01;;;;;;;22.48;12.00;;;;;;;;;;5011781;28;20396;-66
2022/03/08 03:24:26;;;;;;;21.48;11.05;;;;;;;;;;5011789;28;20360;-65
2022/03/08 03:26:52;;;;;;;21.17;11.45;;;;;;;;;;5011232;28;20025;-64
2022/03/08 03:29:17;;;;;;;20.85;11.13;;;;;;;;;;5011127;28;20029;-66
2022/03/08 03:31:43;;;;;;;18.88;10.63;;;;;;;;;;5011481;28;20057;-65
2022/03/08 03:34:08;;;;;;;19.90;10.57;;;;;;;;;;5011049;28;20132;-66
2022/03/08 03:36:33;;;;;;;17.90;10.32;;;;;;;;;;5011930;28;20108;-65
2022/03/08 03:38:59;;;;;;;18.85;10.63;;;;;;;;;;5011186;28;20084;-65
2022/03/08 03:41:24;;;;;;;20.20;10.70;;;;;;;;;;5011374;28;20466;-67
2022/03/08 03:43:50;;;;;;;19.70;10.57;;;;;;;;;;5011442;28;20284;-66
2022/03/08 03:46:16;;;;;;;19.30;10.32;;;;;;;;;;5011653;28;20026;-65
2022/03/08 03:48:42;;;;;;;21.35;10.38;;;;;;;;;;5010769;28;20179;-66
2022/03/08 03:51:08;;;;;;;18.00;10.02;;;;;;;;;;5011326;28;20037;-65
2022/03/08 03:53:33;;;;;;;18.08;9.98;;;;;;;;;;5026359;28;20029;-67
2022/03/08 03:55:58;;;;;;;19.30;10.27;;;;;;;;;;5011264;28;20501;-66
2022/03/08 03:58:24;;;;;;;18.13;9.52;;;;;;;;;;5011170;28;20022;-67
2022/03/08 04:00:50;;;;;;;19.77;10.30;;;;;;;;;;5010813;28;20029;-65
2022/03/08 04:03:15;;;;;;;21.45;10.68;;;;;;;;;;5010835;28;20045;-64
2022/03/08 04:05:41;;;;;;;18.75;10.15;;;;;;;;;;5011163;28;20076;-65
2022/03/08 04:08:07;;;;;;;16.60;9.20;;;;;;;;;;5010870;28;20026;-65
2022/03/08 04:10:32;;;;;;;18.13;9.60;;;;;;;;;;5010528;28;20397;-64
2022/03/08 04:12:58;;;;;;;20.55;9.63;;;;;;;;;;5010652;28;20025;-66
2022/03/08 04:15:24;;;;;;;17.35;9.52;;;;;;;;;;5010490;28;20292;-63
2022/03/08 04:17:49;;;;;;;18.23;9.57;;;;;;;;;;5010591;28;20036;-65
2022/03/08 04:20:15;;;;;;;17.45;9.23;;;;;;;;;;5010598;28;20044;-65
2022/03/08 04:22:40;;;;;;;16.88;9.38;;;;;;;;;;5010592;28;20032;-65
2022/03/08 04:25:07;;;;;;;16.27;9.27;;;;;;;;;;5010617;28;20034;-65
2022/03/08 04:27:32;;;;;;;18.55;9.20;;;;;;;;;;5010571;28;20025;-65
2022/03/08 04:29:58;;;;;;;17.75;9.43;;;;;;;;;;5010113;28;20037;-64
2022/03/08 04:32:23;;;;;;;21.23;9.13;;;;;;;;;;5010434;28;20026;-64
2022/03/08 04:34:49;;;;;;;13.65;8.10;;;;;;;;;;5010151;28;20165;-64
2022/03/08 04:37:14;;;;;;;15.57;8.73;;;;;;;;;;5010362;28;20474;-65
2022/03/08 04:39:40;;;;;;;17.08;9.23;;;;;;;;;;5009643;28;20022;-65
2022/03/08 04:42:06;;;;;;;17.13;9.10;;;;;;;;;;5010533;28;20453;-65
2022/03/08 04:44:32;;;;;;;15.10;8.63;;;;;;;;;;5010325;28;20516;-65
2022/03/08 04:46:57;;;;;;;16.05;8.65;;;;;;;;;;5010283;28;20394;-65
2022/03/08 04:49:25;;;;;;;18.27;9.27;;;;;;;;;;5010049;28;20037;-65
2022/03/08 04:51:50;;;;;;;14.90;8.90;;;;;;;;;;5010427;28;20111;-65
2022/03/08 04:54:16;;;;;;;16.30;9.02;;;;;;;;;;5010061;28;20461;-65
2022/03/08 04:56:41;;;;;;;14.52;8.05;;;;;;;;;;5011622;28;20037;-65
2022/03/08 04:59:06;;;;;;;15.82;8.73;;;;;;;;;;5010121;28;20112;-66
2022/03/08 05:01:32;;;;;;;15.07;8.70;;;;;;;;;;5010192;28;20029;-66
2022/03/08 05:03:57;;;;;;;18.05;8.93;;;;;;;;;;5010285;28;20649;-66
2022/03/08 05:06:23;;;;;;;15.68;9.02;;;;;;;;;;5010183;28;20034;-66
2022/03/08 05:08:48;;;;;;;17.40;8.68;;;;;;;;;;5009952;28;20088;-65
2022/03/08 05:11:14;;;;;;;16.27;9.15;;;;;;;;;;5009851;28;20500;-64
2022/03/08 05:13:40;;;;;;;15.77;8.73;;;;;;;;;;5010038;28;20038;-64
2022/03/08 05:16:06;;;;;;;16.77;9.27;;;;;;;;;;5010055;28;20056;-65
2022/03/08 05:18:31;;;;;;;15.70;9.02;;;;;;;;;;5010156;28;20394;-65
2022/03/08 05:20:57;;;;;;;16.42;9.15;;;;;;;;;;5009857;28;20056;-66
2022/03/08 05:23:22;;;;;;;15.25;8.43;;;;;;;;;;5010211;28;20079;-64
2022/03/08 05:25:48;;;;;;;19.50;9.40;;;;;;;;;;5009812;28;20026;-65
2022/03/08 05:28:14;;;;;;;22.20;9.05;;;;;;;;;;5010013;28;20085;-66
2022/03/08 05:30:40;;;;;;;17.20;8.93;;;;;;;;;;5009592;28;20034;-64
2022/03/08 05:33:05;;;;;;;14.90;8.98;;;;;;;;;;5010004;28;20026;-65
2022/03/08 05:35:31;;;;;;;16.75;9.00;;;;;;;;;;5009655;28;20046;-65
2022/03/08 05:37:56;;;;;;;17.25;8.93;;;;;;;;;;5010026;28;20034;-65
2022/03/08 05:40:22;;;;;;;16.30;8.40;;;;;;;;;;5009542;28;20037;-65
2022/03/08 05:42:47;;;;;;;19.27;8.68;;;;;;;;;;5009865;28;20022;-65
2022/03/08 05:45:13;;;;;;;17.35;8.65;;;;;;;;;;5009341;28;20029;-65
2022/03/08 05:47:39;;;;;;;17.15;8.90;;;;;;;;;;5010001;28;20025;-65
2022/03/08 05:50:07;;;;;;;17.45;9.48;;;;;;;;;;5011392;28;20305;-65
2022/03/08 05:52:33;;;;;;;20.85;9.35;;;;;;;;;;5013856;28;20033;-64
2022/03/08 05:54:58;;;;;;;21.58;9.93;;;;;;;;;;5013403;28;20390;-67
2022/03/08 05:57:24;;;;;;;21.17;9.20;;;;;;;;;;5013315;28;20492;-64
2022/03/08 05:59:49;;;;;;;18.15;9.15;;;;;;;;;;5012807;28;20065;-66
2022/03/08 06:02:19;;;;;;;18.33;9.20;;;;;;;;;;5013229;28;20057;-64
2022/03/08 06:04:44;;;;;;;17.02;9.40;;;;;;;;;;5013168;28;20084;-65
2022/03/08 06:07:10;;;;;;;20.58;10.30;;;;;;;;;;5013320;28;20029;-65
2022/03/08 06:09:36;;;;;;;16.23;9.20;;;;;;;;;;5012909;28;20033;-65
2022/03/08 06:12:02;;;;;;;17.77;9.48;;;;;;;;;;5013093;28;20161;-65
2022/03/08 06:14:28;;;;;;;17.85;9.32;;;;;;;;;;5012742;28;20327;-65
2022/03/08 06:16:53;;;;;;;16.75;8.95;;;;;;;;;;5013269;28;20241;-66
2022/03/08 06:19:19;;;;;;;15.77;9.13;;;;;;;;;;5012941;28;20517;-64
2022/03/08 06:21:45;;;;;;;15.07;8.63;;;;;;;;;;5012841;28;20497;-66
2022/03/08 06:24:11;;;;;;;18.08;8.80;;;;;;;;;;5012836;28;20389;-65
2022/03/08 06:26:37;;;;;;;17.50;9.35;;;;;;;;;;5012774;28;20141;-65
2022/03/08 06:29:03;;;;;;;16.65;9.75;;;;;;;;;;5012651;28;20084;-64
2022/03/08 06:31:29;;;;;;;18.25;9.75;;;;;;;;;;5012122;28;20034;-65
2022/03/08 06:33:54;;;;;;;20.15;9.90;;;;;;;;;;5012417;28;20620;-65
2022/03/08 06:36:20;;;;;;;23.08;11.35;;;;;;;;;;5012465;28;20068;-65
2022/03/08 06:38:46;;;;;;;23.83;11.85;;;;;;;;;;5012698;28;20418;-65
2022/03/08 06:41:11;;;;;;;20.63;11.27;;;;;;;;;;5012256;28;20486;-65
2022/03/08 06:43:37;;;;;;;22.40;11.70;;;;;;;;;;5012444;28;20113;-65
2022/03/08 06:46:02;;;;;;;20.55;10.88;;;;;;;;;;5012049;28;20026;-65
2022/03/08 06:48:28;;;;;;;20.73;11.60;;;;;;;;;;5012641;28;20038;-65
2022/03/08 06:50:53;;;;;;;21.70;10.52;;;;;;;;;;5011814;28;20131;-68
2022/03/08 06:53:19;;;;;;;19.75;10.13;;;;;;;;;;5012250;28;20557;-66
2022/03/08 06:55:44;;;;;;;19.48;10.55;;;;;;;;;;5012026;28;20088;-65
2022/03/08 06:58:10;;;;;;;17.20;10.57;;;;;;;;;;5012285;28;20026;-65
2022/03/08 07:00:35;;;;;;;15.95;9.25;;;;;;;;;;5011638;28;20100;-64
2022/03/08 07:03:01;;;;;;;18.75;10.10;;;;;;;;;;5011779;28;20049;-64
2022/03/08 07:05:26;;;;;;;18.27;9.80;;;;;;;;;;5012008;28;20049;-66
2022/03/08 07:07:51;;;;;;;22.30;10.38;;;;;;;;;;5012038;28;20042;-65
2022/03/08 07:10:17;;;;;;;17.70;9.93;;;;;;;;;;5011491;28;20272;-65
2022/03/08 07:12:43;;;;;;;22.83;10.15;;;;;;;;;;5011811;28;20497;-65
2022/03/08 07:15:08;;;;;;;16.92;9.75;;;;;;;;;;5011463;28;20482;-64
2022/03/08 07:17:34;;;;;;;20.63;10.07;;;;;;;;;;5011959;28;20025;-65
2022/03/08 07:19:59;;;;;;;19.33;9.95;;;;;;;;;;5011614;28;20037;-65
2022/03/08 07:22:25;;;;;;;21.52;10.48;;;;;;;;;;5011816;28;20020;-65
2022/03/08 07:24:50;;;;;;;26.05;11.50;;;;;;;;;;5010236;28;20018;-65
2022/03/08 07:27:15;;;;;;;21.50;11.60;;;;;;;;;;5011325;28;20030;-65
2022/03/08 07:29:43;;;;;;;23.42;12.05;;;;;;;;;;5011572;28;20025;-65
2022/03/08 07:32:09;;;;;;;29.80;12.85;;;;;;;;;;5011184;28;20029;-65
2022/03/08 07:34:35;;;;;;;25.23;12.38;;;;;;;;;;5011385;28;20111;-65
2022/03/08 07:37:00;;;;;;;26.13;12.68;;;;;;;;;;5011893;28;20026;-66
2022/03/08 07:39:26;;;;;;;26.58;12.60;;;;;;;;;;5011347;28;20017;-65
2022/03/08 07:41:51;;;;;;;24.65;12.35;;;;;;;;;;5011380;28;20117;-66
2022/03/08 07:44:16;;;;;;;26.05;11.30;;;;;;;;;;5011303;28;20018;-66
2022/03/08 07:46:42;;;;;;;19.45;10.38;;;;;;;;;;5011137;28;20018;-65
2022/03/08 07:49:07;;;;;;;19.50;9.85;;;;;;;;;;5011351;28;20029;-66
2022/03/08 07:51:33;;;;;;;16.55;9.20;;;;;;;;;;5010736;28;20056;-65
2022/03/08 07:53:59;;;;;;;14.57;9.30;;;;;;;;;;5011324;28;20025;-65
2022/03/08 07:56:25;;;;;;;16.67;9.20;;;;;;;;;;5010785;28;20022;-64
2022/03/08 07:58:52;;;;;;;14.60;8.50;;;;;;;;;;5011081;28;20022;-65
2022/03/08 08:01:18;;;;;;;15.93;9.55;;;;;;;;;;5010482;28;20026;-65
2022/03/08 08:03:43;;;;;;;19.75;9.50;;;;;;;;;;5011309;28;20040;-65
2022/03/08 08:06:09;;;;;;;20.05;9.88;;;;;;;;;;5010712;28;20486;-66
2022/03/08 08:08:34;;;;;;;19.52;9.65;;;;;;;;;;5011012;28;20383;-64
2022/03/08 08:11:00;;;;;;;17.45;9.35;;;;;;;;;;5009274;28;20036;-69
2022/03/08 08:13:25;;;;;;;19.50;9.18;;;;;;;;;;5010232;28;20033;-64
2022/03/08 08:15:51;;;;;;;16.40;9.15;;;;;;;;;;5010159;28;20482;-64
2022/03/08 08:18:16;;;;;;;21.98;10.10;;;;;;;;;;5010593;28;20080;-65
2022/03/08 08:20:41;;;;;;;23.27;10.70;;;;;;;;;;5010169;28;20037;-64
2022/03/08 08:23:07;;;;;;;23.13;12.02;;;;;;;;;;5010740;28;20076;-68
2022/03/08 08:25:33;;;;;;;21.58;11.98;;;;;;;;;;5010613;28;20069;-65
2022/03/08 08:27:58;;;;;;;23.73;11.88;;;;;;;;;;5010451;28;20524;-64
2022/03/08 08:30:23;;;;;;;19.63;11.60;;;;;;;;;;5010459;28;20029;-64
2022/03/08 08:32:50;;;;;;;22.67;12.00;;;;;;;;;;5010198;28;20261;-65
2022/03/08 08:35:17;;;;;;;20.55;12.20;;;;;;;;;;5010260;28;20081;-64
2022/03/08 08:37:42;;;;;;;24.42;12.50;;;;;;;;;;5010299;28;20025;-63
2022/03/08 08:40:08;;;;;;;18.83;11.10;;;;;;;;;;5010477;28;20033;-67
2022/03/08 08:42:34;;;;;;;20.38;12.00;;;;;;;;;;5009885;28;20041;-64
2022/03/08 08:44:59;;;;;;;19.98;12.23;;;;;;;;;;5010179;28;20397;-64
2022/03/08 08:47:25;;;;;;;19.42;12.02;;;;;;;;;;5010168;28;20021;-64
2022/03/08 08:49:51;;;;;;;19.85;12.10;;;;;;;;;;5010197;28;20029;-64
2022/03/08 08:52:16;;;;;;;22.58;12.77;;;;;;;;;;5009538;28;20484;-65
2022/03/08 08:54:42;;;;;;;20.83;12.07;;;;;;;;;;5010177;28;20452;-65
2022/03/08 08:57:07;;;;;;;23.60;12.32;;;;;;;;;;5010125;28;20033;-64
2022/03/08 08:59:33;;;;;;;20.88;12.07;;;;;;;;;;5010281;28;20056;-64
2022/03/08 09:01:58;;;;;;;19.95;11.88;;;;;;;;;;5010026;28;20420;-64
2022/03/08 09:04:24;;;;;;;21.90;12.43;;;;;;;;;;5009985;28;20026;-64
2022/03/08 09:06:49;;;;;;;21.23;11.50;;;;;;;;;;5009918;28;20037;-65
2022/03/08 09:09:15;;;;;;;21.52;12.02;;;;;;;;;;5008840;28;20030;-66
2022/03/08 09:11:41;;;;;;;20.45;11.75;;;;;;;;;;5007652;28;20030;-65
2022/03/08 09:14:06;;;;;;;22.33;11.90;;;;;;;;;;5009371;28;20037;-66
2022/03/08 09:16:32;;;;;;;21.65;11.52;;;;;;;;;;5009653;28;20517;-65
2022/03/08 09:18:57;;;;;;;21.02;11.85;;;;;;;;;;5008817;28;20026;-65
2022/03/08 09:21:23;;;;;;;21.45;12.90;;;;;;;;;;5008305;28;20040;-64
2022/03/08 09:23:48;;;;;;;21.73;13.23;;;;;;;;;;5009759;28;20025;-65
2022/03/08 09:26:14;;;;;;;22.50;12.07;;;;;;;;;;5013513;28;20394;-64
2022/03/08 09:28:39;;;;;;;20.42;11.98;;;;;;;;;;5013387;28;20030;-65
2022/03/08 09:31:05;;;;;;;23.05;13.35;;;;;;;;;;5013666;28;20034;-65
2022/03/08 09:33:30;;;;;;;21.52;12.70;;;;;;;;;;5017669;28;20126;-64
2022/03/08 09:35:56;;;;;;;26.55;13.32;;;;;;;;;;5012929;28;20368;-65
2022/03/08 09:38:21;;;;;;;24.23;12.88;;;;;;;;;;5012234;28;20026;-65
2022/03/08 09:40:50;;;;;;;24.70;13.25;;;;;;;;;;5013039;28;20038;-65
2022/03/08 09:43:15;;;;;;;25.42;13.23;;;;;;;;;;5013079;28;20033;-65
2022/03/08 09:45:42;;;;;;;24.27;14.40;;;;;;;;;;5012549;28;20041;-65
2022/03/08 09:48:07;;;;;;;22.13;13.35;;;;;;;;;;5013333;28;20025;-67
2022/03/08 09:50:33;;;;;;;22.55;12.85;;;;;;;;;;5013383;28;20029;-65
2022/03/08 09:52:59;;;;;;;26.27;13.27;;;;;;;;;;5013275;28;20363;-64
2022/03/08 09:55:25;;;;;;;26.95;13.98;;;;;;;;;;5013354;28;20453;-65
2022/03/08 09:57:54;;;;;;;29.90;14.40;;;;;;;;;;5013431;28;20026;-65
2022/03/08 10:00:23;;;;;;;26.25;14.65;;;;;;;;;;5013147;28;20026;-66
2022/03/08 10:02:56;;;;;;;29.55;16.08;;;;;;;;;;5013113;28;20034;-65
2022/03/08 10:05:39;;;;;;;28.52;15.30;;;;;;;;;;5013220;28;20026;-65
2022/03/08 10:08:08;;;;;;;32.55;16.42;;;;;;;;;;5012993;28;20061;-65
2022/03/08 10:10:58;;;;;;;35.53;18.05;;;;;;;;;;5013306;28;20565;-66
2022/03/08 10:13:31;;;;;;;33.80;18.60;;;;;;;;;;5013040;28;20109;-64
2022/03/08 10:16:15;;;;;;;34.83;18.75;;;;;;;;;;5012738;28;20045;-64
2022/03/08 10:18:45;;;;;;;35.30;19.65;;;;;;;;;;5012654;28;20104;-65
2022/03/08 10:21:32;;;;;;;40.35;22.05;;;;;;;;;;5012742;28;20033;-64
2022/03/08 10:24:03;;;;;;;47.15;22.98;;;;;;;;;;5012726;28;20101;-65
2022/03/08 10:26:29;;;;;;;46.92;24.13;;;;;;;;;;5012841;28;20092;-64
2022/03/08 10:28:56;;;;;;;49.47;25.95;;;;;;;;;;5012559;28;20109;-65
2022/03/08 10:31:22;;;;;;;53.00;27.50;;;;;;;;;;5012452;28;20108;-63
2022/03/08 10:33:49;;;;;;;59.15;30.85;;;;;;;;;;5012337;28;20495;-64
2022/03/08 10:36:26;;;;;;;51.13;28.00;;;;;;;;;;5011467;28;20136;-66
2022/03/08 10:39:13;;;;;;;51.55;28.55;;;;;;;;;;5012229;28;20109;-66
2022/03/08 10:41:47;;;;;;;53.38;27.88;;;;;;;;;;5012592;28;20084;-64
2022/03/08 10:44:12;;;;;;;51.90;26.20;;;;;;;;;;5012246;28;20080;-65
2022/03/08 10:46:37;;;;;;;41.20;24.40;;;;;;;;;;5012375;28;20030;-64
2022/03/08 10:49:13;;;;;;;44.13;24.92;;;;;;;;;;5012175;28;20076;-63
2022/03/08 10:51:41;;;;;;;41.92;23.40;;;;;;;;;;5011857;28;20084;-63
2022/03/08 10:54:11;;;;;;;39.75;22.17;;;;;;;;;;5012053;28;20033;-63
2022/03/08 10:56:43;;;;;;;47.97;22.80;;;;;;;;;;5012931;28;20033;-63
2022/03/08 10:59:10;;;;;;;41.30;22.83;;;;;;;;;;5012097;28;20062;-66
2022/03/08 11:01:35;;;;;;;38.08;21.80;;;;;;;;;;5011924;28;20080;-63
2022/03/08 11:04:01;;;;;;;38.90;22.00;;;;;;;;;;5011798;28;20030;-64
2022/03/08 11:06:26;;;;;;;39.05;22.02;;;;;;;;;;5012231;28;20030;-64
2022/03/08 11:08:52;;;;;;;39.15;21.83;;;;;;;;;;5011581;28;20073;-65
2022/03/08 11:11:21;;;;;;;36.35;20.60;;;;;;;;;;5011963;28;20026;-71
2022/03/08 11:13:54;;;;;;;38.95;21.50;;;;;;;;;;5011659;28;20026;-63
2022/03/08 11:16:20;;;;;;;39.78;19.85;;;;;;;;;;5011815;28;20057;-64
2022/03/08 11:18:50;;;;;;;38.22;20.25;;;;;;;;;;5011694;28;20069;-64
2022/03/08 11:21:17;;;;;;;37.65;21.08;;;;;;;;;;5011955;28;20030;-64
2022/03/08 11:23:44;;;;;;;36.78;20.80;;;;;;;;;;5011611;28;20053;-63
2022/03/08 11:26:15;;;;;;;32.15;18.35;;;;;;;;;;5011573;28;20026;-64
2022/03/08 11:28:41;;;;;;;;;;;;;;;;;;5001403;28;20185;-63
2022/03/08 11:31:07;;;;;;;38.10;19.27;;;;;;;;;;5011230;28;19959;-66
2022/03/08 11:33:46;;;;;;;37.55;19.08;;;;;;;;;;5011249;28;20050;-65
2022/03/08 11:36:33;;;;;;;38.53;19.42;;;;;;;;;;5011378;28;20022;-63
2022/03/08 11:39:24;;;;;;;34.63;19.35;;;;;;;;;;5011103;28;20030;-64
2022/03/08 11:41:52;;;;;;;35.47;17.95;;;;;;;;;;5011397;28;20038;-65
2022/03/08 11:44:26;;;;;;;35.38;17.52;;;;;;;;;;5011110;28;20033;-64
2022/03/08 11:46:59;;;;;;;30.35;17.48;;;;;;;;;;5010882;28;20498;-64
2022/03/08 11:49:43;;;;;;;29.25;18.13;;;;;;;;;;5011012;28;20076;-63
2022/03/08 11:52:24;;;;;;;35.30;18.58;;;;;;;;;;5011038;28;20034;-64
2022/03/08 11:54:58;;;;;;;33.72;18.33;;;;;;;;;;5011145;28;20034;-65
2022/03/08 11:57:49;;;;;;;36.92;19.20;;;;;;;;;;5011232;28;20048;-64
2022/03/08 12:00:24;;;;;;;29.92;16.77;;;;;;;;;;5010628;28;20054;-64
2022/03/08 12:02:54;;;;;;;31.48;17.30;;;;;;;;;;5010715;28;20038;-64
2022/03/08 12:05:43;;;;;;;35.17;17.90;;;;;;;;;;5011260;28;20085;-64
2022/03/08 12:08:27;;;;;;;30.98;17.55;;;;;;;;;;5010010;28;20438;-64
2022/03/08 12:10:57;;;;;;;32.90;17.10;;;;;;;;;;5010974;28;20104;-64
2022/03/08 12:13:26;;;;;;;;;;;;;;;;;;5011035;28;20025;-64
2022/03/08 12:16:08;;;;;;;28.63;16.88;;;;;;;;;;5010595;28;19943;-64
2022/03/08 12:18:45;;;;;;;31.33;16.48;;;;;;;;;;5010592;28;20041;-64
2022/03/08 12:21:17;;;;;;;29.20;15.85;;;;;;;;;;5010645;28;20591;-65
2022/03/08 12:24:02;;;;;;;30.80;15.73;;;;;;;;;;5010722;28;20034;-65
2022/03/08 12:26:31;;;;;;;30.58;16.98;;;;;;;;;;5010783;28;20034;-64
2022/03/08 12:29:12;;;;;;;30.55;17.92;;;;;;;;;;5010578;28;20029;-65
2022/03/08 12:31:59;;;;;;;31.60;17.50;;;;;;;;;;5010318;28;20062;-64
2022/03/08 12:34:34;;;;;;;28.73;17.30;;;;;;;;;;5010083;28;20054;-64
2022/03/08 12:37:09;;;;;;;33.78;17.17;;;;;;;;;;5010429;28;20025;-65
2022/03/08 12:39:47;;;;;;;32.58;18.67;;;;;;;;;;5010728;28;20052;-64
2022/03/08 12:42:35;;;;;;;33.28;17.88;;;;;;;;;;5010326;28;20461;-65
2022/03/08 12:45:14;;;;;;;34.30;18.17;;;;;;;;;;5008789;28;20025;-64
2022/03/08 12:47:42;;;;;;;29.92;16.90;;;;;;;;;;5010203;28;20026;-65
2022/03/08 12:50:14;;;;;;;28.17;17.13;;;;;;;;;;5009925;28;20030;-65
2022/03/08 12:52:48;;;;;;;35.60;17.63;;;;;;;;;;5009779;28;20021;-65
2022/03/08 12:55:25;;;;;;;27.67;15.77;;;;;;;;;;5009038;28;20026;-64
2022/03/08 12:57:56;;;;;;;29.10;15.68;;;;;;;;;;5009977;28;20085;-64
2022/03/08 13:00:32;;;;;;;26.73;15.68;;;;;;;;;;5009169;28;20120;-64
2022/03/08 13:02:58;;;;;;;30.88;17.05;;;;;;;;;;5009821;28;20398;-64
2022/03/08 13:05:30;;;;;;;33.80;18.25;;;;;;;;;;5009571;28;20112;-63
2022/03/08 13:07:57;;;;;;;30.67;16.98;;;;;;;;;;5009975;28;20507;-63
2022/03/08 13:10:24;;;;;;;30.05;17.27;;;;;;;;;;5009770;28;20025;-65
2022/03/08 13:12:55;;;;;;;28.63;17.10;;;;;;;;;;5009923;28;20041;-64
2022/03/08 13:15:23;;;;;;;;;;;;;;;;;;5010488;28;20097;-63
2022/03/08 13:17:51;;;;;;;29.25;15.73;;;;;;;;;;5010165;28;20200;-67
2022/03/08 13:20:33;;;;;;;33.38;16.58;;;;;;;;;;5008562;28;20033;-65
2022/03/08 13:23:21;;;;;;;28.88;16.58;;;;;;;;;;5009711;28;20041;-65
2022/03/08 13:25:48;;;;;;;31.88;16.67;;;;;;;;;;5009479;28;20041;-66
2022/03/08 13:28:16;;;;;;;33.90;17.20;;;;;;;;;;5009799;28;20032;-63
2022/03/08 13:30:56;;;;;;;26.67;15.80;;;;;;;;;;5009436;28;20419;-66
2022/03/08 13:33:32;;;;;;;31.40;17.58;;;;;;;;;;5009460;28;20022;-63
2022/03/08 13:36:06;;;;;;;28.60;16.80;;;;;;;;;;5008125;28;20042;-63
2022/03/08 13:38:36;;;;;;;29.95;16.80;;;;;;;;;;5009824;28;20113;-63
2022/03/08 13:41:13;;;;;;;33.38;18.10;;;;;;;;;;5009552;28;20391;-63
2022/03/08 13:43:40;;;;;;;32.85;17.40;;;;;;;;;;5009653;28;20053;-64
2022/03/08 13:46:11;;;;;;;30.13;16.92;;;;;;;;;;5009594;28;20018;-65
2022/03/08 13:48:43;;;;;;;29.20;16.42;;;;;;;;;;5008136;28;20497;-64
2022/03/08 13:51:09;;;;;;;29.13;16.35;;;;;;;;;;5009372;28;20461;-65
2022/03/08 13:53:36;;;;;;;30.58;16.15;;;;;;;;;;5009570;28;20113;-64
2022/03/08 13:56:02;;;;;;;28.23;16.58;;;;;;;;;;5009572;28;20065;-64
2022/03/08 13:58:33;;;;;;;28.05;16.27;;;;;;;;;;5009615;28;20030;-64
2022/03/08 14:00:59;;;;;;;25.55;14.77;;;;;;;;;;5009081;28;20441;-65
2022/03/08 14:03:25;;;;;;;25.58;15.23;;;;;;;;;;5009646;28;20026;-64
2022/03/08 14:05:50;;;;;;;27.67;15.88;;;;;;;;;;5009429;28;20110;-64
2022/03/08 14:08:30;;;;;;;27.83;15.05;;;;;;;;;;5009678;28;20096;-64
2022/03/08 14:11:00;;;;;;;28.40;15.93;;;;;;;;;;5011040;28;20022;-64
2022/03/08 14:13:26;;;;;;;26.95;15.70;;;;;;;;;;5012801;28;20034;-64
2022/03/08 14:16:01;;;;;;;26.52;15.45;;;;;;;;;;5012679;28;20033;-65
2022/03/08 14:18:26;;;;;;;29.48;16.45;;;;;;;;;;5013044;28;20049;-65
2022/03/08 14:20:52;;;;;;;27.35;15.70;;;;;;;;;;5012506;28;20448;-64
2022/03/08 14:23:18;;;;;;;29.45;15.07;;;;;;;;;;5012909;28;20030;-65
2022/03/08 14:26:07;;;;;;;31.42;15.90;;;;;;;;;;5012638;28;20112;-65